sensor_id;sensor_type;location;lat;lon;timestamp;P1;durP1;ratioP1;P2;durP2;ratioP2
74074;SDS011;62428;51.412;5.432;2023-08-06T00:01:48;2.13;;;1.27;;
74074;SDS011;62428;51.412;5.432;2023-08-06T00:04:13;4.30;;;1.53;;
74074;SDS011;62428;51.412;5.432;2023-08-06T00:06:39;4.43;;;1.40;;
74074;SDS011;62428;51.412;5.432;2023-08-06T00:09:04;3.20;;;1.53;;
74074;SDS011;62428;51.412;5.432;2023-08-06T00:11:29;3.60;;;1.40;;
74074;SDS011;62428;51.412;5.432;2023-08-06T00:13:55;2.50;;;1.50;;
74074;SDS011;62428;51.412;5.432;2023-08-06T00:16:20;5.37;;;1.30;;
74074;SDS011;62428;51.412;5.432;2023-08-06T00:18:45;3.17;;;1.38;;
74074;SDS011;62428;51.412;5.432;2023-08-06T00:21:11;2.83;;;1.67;;
74074;SDS011;62428;51.412;5.432;2023-08-06T00:23:39;2.83;;;1.13;;
74074;SDS011;62428;51.412;5.432;2023-08-06T00:26:05;4.20;;;1.70;;
74074;SDS011;62428;51.412;5.432;2023-08-06T00:28:31;5.13;;;1.60;;
74074;SDS011;62428;51.412;5.432;2023-08-06T00:30:56;3.43;;;1.50;;
74074;SDS011;62428;51.412;5.432;2023-08-06T00:33:24;5.38;;;1.80;;
74074;SDS011;62428;51.412;5.432;2023-08-06T00:35:50;2.60;;;1.23;;
74074;SDS011;62428;51.412;5.432;2023-08-06T00:38:16;4.40;;;1.60;;
74074;SDS011;62428;51.412;5.432;2023-08-06T00:40:41;4.82;;;1.40;;
74074;SDS011;62428;51.412;5.432;2023-08-06T00:43:07;3.03;;;1.63;;
74074;SDS011;62428;51.412;5.432;2023-08-06T00:45:33;2.10;;;1.27;;
74074;SDS011;62428;51.412;5.432;2023-08-06T00:48:00;5.68;;;1.60;;
74074;SDS011;62428;51.412;5.432;2023-08-06T00:50:28;2.92;;;1.38;;
74074;SDS011;62428;51.412;5.432;2023-08-06T00:52:54;2.20;;;1.30;;
74074;SDS011;62428;51.412;5.432;2023-08-06T00:55:19;4.60;;;1.50;;
74074;SDS011;62428;51.412;5.432;2023-08-06T00:57:45;3.07;;;1.53;;
74074;SDS011;62428;51.412;5.432;2023-08-06T01:00:11;3.65;;;1.50;;
74074;SDS011;62428;51.412;5.432;2023-08-06T01:02:37;3.70;;;1.57;;
74074;SDS011;62428;51.412;5.432;2023-08-06T01:05:02;2.95;;;1.45;;
74074;SDS011;62428;51.412;5.432;2023-08-06T01:10:19;4.65;;;1.92;;
74074;SDS011;62428;51.412;5.432;2023-08-06T01:15:32;3.42;;;1.30;;
74074;SDS011;62428;51.412;5.432;2023-08-06T01:18:04;3.83;;;1.70;;
74074;SDS011;62428;51.412;5.432;2023-08-06T01:20:30;3.47;;;1.23;;
74074;SDS011;62428;51.412;5.432;2023-08-06T01:22:56;5.05;;;1.58;;
74074;SDS011;62428;51.412;5.432;2023-08-06T01:25:21;5.90;;;1.30;;
74074;SDS011;62428;51.412;5.432;2023-08-06T01:27:55;2.60;;;1.23;;
74074;SDS011;62428;51.412;5.432;2023-08-06T01:30:30;4.67;;;1.30;;
74074;SDS011;62428;51.412;5.432;2023-08-06T01:33:02;2.85;;;1.27;;
74074;SDS011;62428;51.412;5.432;2023-08-06T01:35:30;4.97;;;1.40;;
74074;SDS011;62428;51.412;5.432;2023-08-06T01:37:57;5.43;;;1.10;;
74074;SDS011;62428;51.412;5.432;2023-08-06T01:40:24;3.65;;;1.40;;
74074;SDS011;62428;51.412;5.432;2023-08-06T01:42:52;4.03;;;1.03;;
74074;SDS011;62428;51.412;5.432;2023-08-06T01:45:17;4.22;;;1.38;;
74074;SDS011;62428;51.412;5.432;2023-08-06T01:47:42;3.60;;;1.03;;
74074;SDS011;62428;51.412;5.432;2023-08-06T01:50:08;3.50;;;1.20;;
74074;SDS011;62428;51.412;5.432;2023-08-06T01:52:33;3.80;;;1.00;;
74074;SDS011;62428;51.412;5.432;2023-08-06T01:54:59;3.87;;;1.13;;
74074;SDS011;62428;51.412;5.432;2023-08-06T01:57:25;2.90;;;0.85;;
74074;SDS011;62428;51.412;5.432;2023-08-06T01:59:51;4.70;;;1.10;;
74074;SDS011;62428;51.412;5.432;2023-08-06T02:02:16;3.42;;;1.02;;
74074;SDS011;62428;51.412;5.432;2023-08-06T02:04:41;1.87;;;0.87;;
74074;SDS011;62428;51.412;5.432;2023-08-06T02:07:08;6.13;;;1.40;;
74074;SDS011;62428;51.412;5.432;2023-08-06T02:09:33;1.52;;;0.75;;
74074;SDS011;62428;51.412;5.432;2023-08-06T02:12:00;5.93;;;0.90;;
74074;SDS011;62428;51.412;5.432;2023-08-06T02:14:25;3.80;;;0.90;;
74074;SDS011;62428;51.412;5.432;2023-08-06T02:16:51;3.73;;;1.07;;
74074;SDS011;62428;51.412;5.432;2023-08-06T02:19:16;4.57;;;1.03;;
74074;SDS011;62428;51.412;5.432;2023-08-06T02:21:42;4.65;;;0.98;;
74074;SDS011;62428;51.412;5.432;2023-08-06T02:24:07;2.63;;;1.00;;
74074;SDS011;62428;51.412;5.432;2023-08-06T02:26:32;3.13;;;1.03;;
74074;SDS011;62428;51.412;5.432;2023-08-06T02:28:58;6.53;;;1.40;;
74074;SDS011;62428;51.412;5.432;2023-08-06T02:31:23;2.73;;;0.97;;
74074;SDS011;62428;51.412;5.432;2023-08-06T02:33:49;2.20;;;1.00;;
74074;SDS011;62428;51.412;5.432;2023-08-06T02:36:14;1.90;;;1.07;;
74074;SDS011;62428;51.412;5.432;2023-08-06T02:38:39;2.83;;;1.10;;
74074;SDS011;62428;51.412;5.432;2023-08-06T02:41:05;3.73;;;0.97;;
74074;SDS011;62428;51.412;5.432;2023-08-06T02:43:30;3.43;;;1.30;;
74074;SDS011;62428;51.412;5.432;2023-08-06T02:45:56;2.88;;;1.15;;
74074;SDS011;62428;51.412;5.432;2023-08-06T02:48:23;3.03;;;1.30;;
74074;SDS011;62428;51.412;5.432;2023-08-06T02:50:48;1.87;;;1.03;;
74074;SDS011;62428;51.412;5.432;2023-08-06T02:53:14;4.35;;;1.08;;
74074;SDS011;62428;51.412;5.432;2023-08-06T02:55:44;6.17;;;1.30;;
74074;SDS011;62428;51.412;5.432;2023-08-06T02:58:11;5.30;;;1.00;;
74074;SDS011;62428;51.412;5.432;2023-08-06T03:00:37;2.67;;;1.10;;
74074;SDS011;62428;51.412;5.432;2023-08-06T03:03:02;4.73;;;1.30;;
74074;SDS011;62428;51.412;5.432;2023-08-06T03:05:27;3.20;;;1.30;;
74074;SDS011;62428;51.412;5.432;2023-08-06T03:07:53;1.77;;;1.10;;
74074;SDS011;62428;51.412;5.432;2023-08-06T03:10:18;3.13;;;1.20;;
74074;SDS011;62428;51.412;5.432;2023-08-06T03:12:44;4.13;;;1.23;;
74074;SDS011;62428;51.412;5.432;2023-08-06T03:15:10;3.30;;;1.43;;
74074;SDS011;62428;51.412;5.432;2023-08-06T03:17:35;5.10;;;1.40;;
74074;SDS011;62428;51.412;5.432;2023-08-06T03:20:01;2.85;;;1.52;;
74074;SDS011;62428;51.412;5.432;2023-08-06T03:22:26;4.10;;;1.30;;
74074;SDS011;62428;51.412;5.432;2023-08-06T03:24:51;3.93;;;1.50;;
74074;SDS011;62428;51.412;5.432;2023-08-06T03:27:17;3.00;;;1.60;;
74074;SDS011;62428;51.412;5.432;2023-08-06T03:29:42;3.93;;;1.40;;
74074;SDS011;62428;51.412;5.432;2023-08-06T03:32:07;3.03;;;1.67;;
74074;SDS011;62428;51.412;5.432;2023-08-06T03:34:33;3.27;;;1.80;;
74074;SDS011;62428;51.412;5.432;2023-08-06T03:36:58;2.60;;;1.40;;
74074;SDS011;62428;51.412;5.432;2023-08-06T03:39:23;5.73;;;2.13;;
74074;SDS011;62428;51.412;5.432;2023-08-06T03:41:49;4.43;;;2.00;;
74074;SDS011;62428;51.412;5.432;2023-08-06T03:44:14;6.53;;;2.00;;
74074;SDS011;62428;51.412;5.432;2023-08-06T03:46:39;4.97;;;1.90;;
74074;SDS011;62428;51.412;5.432;2023-08-06T03:49:05;6.10;;;2.07;;
74074;SDS011;62428;51.412;5.432;2023-08-06T03:51:30;4.50;;;2.00;;
74074;SDS011;62428;51.412;5.432;2023-08-06T03:53:55;6.20;;;2.17;;
74074;SDS011;62428;51.412;5.432;2023-08-06T03:56:21;5.10;;;1.93;;
74074;SDS011;62428;51.412;5.432;2023-08-06T03:58:46;5.27;;;2.30;;
74074;SDS011;62428;51.412;5.432;2023-08-06T04:01:12;4.50;;;2.40;;
74074;SDS011;62428;51.412;5.432;2023-08-06T04:03:37;4.27;;;2.07;;
74074;SDS011;62428;51.412;5.432;2023-08-06T04:06:02;4.17;;;1.67;;
74074;SDS011;62428;51.412;5.432;2023-08-06T04:08:28;3.63;;;2.22;;
74074;SDS011;62428;51.412;5.432;2023-08-06T04:10:53;3.60;;;2.10;;
74074;SDS011;62428;51.412;5.432;2023-08-06T04:13:19;2.90;;;2.00;;
74074;SDS011;62428;51.412;5.432;2023-08-06T04:15:45;5.47;;;2.00;;
74074;SDS011;62428;51.412;5.432;2023-08-06T04:18:11;6.07;;;2.43;;
74074;SDS011;62428;51.412;5.432;2023-08-06T04:20:46;3.90;;;2.50;;
74074;SDS011;62428;51.412;5.432;2023-08-06T04:23:14;4.37;;;2.10;;
74074;SDS011;62428;51.412;5.432;2023-08-06T04:25:39;6.20;;;3.35;;
74074;SDS011;62428;51.412;5.432;2023-08-06T04:28:05;4.00;;;2.10;;
74074;SDS011;62428;51.412;5.432;2023-08-06T04:30:30;3.47;;;1.97;;
74074;SDS011;62428;51.412;5.432;2023-08-06T04:32:59;3.77;;;1.83;;
74074;SDS011;62428;51.412;5.432;2023-08-06T04:35:24;5.32;;;2.03;;
74074;SDS011;62428;51.412;5.432;2023-08-06T04:37:50;4.63;;;2.10;;
74074;SDS011;62428;51.412;5.432;2023-08-06T04:40:15;7.60;;;2.17;;
74074;SDS011;62428;51.412;5.432;2023-08-06T04:42:41;3.60;;;2.17;;
74074;SDS011;62428;51.412;5.432;2023-08-06T04:45:06;7.20;;;2.23;;
74074;SDS011;62428;51.412;5.432;2023-08-06T04:47:32;5.38;;;1.85;;
74074;SDS011;62428;51.412;5.432;2023-08-06T04:49:57;6.60;;;2.27;;
74074;SDS011;62428;51.412;5.432;2023-08-06T04:52:23;8.57;;;2.07;;
74074;SDS011;62428;51.412;5.432;2023-08-06T04:54:52;5.22;;;2.33;;
74074;SDS011;62428;51.412;5.432;2023-08-06T04:57:18;4.97;;;2.17;;
74074;SDS011;62428;51.412;5.432;2023-08-06T04:59:43;3.67;;;1.93;;
74074;SDS011;62428;51.412;5.432;2023-08-06T05:02:08;4.50;;;2.20;;
74074;SDS011;62428;51.412;5.432;2023-08-06T05:04:34;3.73;;;2.00;;
74074;SDS011;62428;51.412;5.432;2023-08-06T05:06:59;3.63;;;2.10;;
74074;SDS011;62428;51.412;5.432;2023-08-06T05:09:26;3.87;;;2.30;;
74074;SDS011;62428;51.412;5.432;2023-08-06T05:11:52;3.90;;;2.35;;
74074;SDS011;62428;51.412;5.432;2023-08-06T05:14:17;6.73;;;2.70;;
74074;SDS011;62428;51.412;5.432;2023-08-06T05:16:42;5.10;;;2.57;;
74074;SDS011;62428;51.412;5.432;2023-08-06T05:19:08;6.88;;;2.55;;
74074;SDS011;62428;51.412;5.432;2023-08-06T05:21:33;5.30;;;2.40;;
74074;SDS011;62428;51.412;5.432;2023-08-06T05:23:58;4.37;;;2.47;;
74074;SDS011;62428;51.412;5.432;2023-08-06T05:26:24;7.87;;;2.37;;
74074;SDS011;62428;51.412;5.432;2023-08-06T05:28:49;8.33;;;2.50;;
74074;SDS011;62428;51.412;5.432;2023-08-06T05:31:14;6.93;;;2.70;;
74074;SDS011;62428;51.412;5.432;2023-08-06T05:33:40;6.00;;;2.53;;
74074;SDS011;62428;51.412;5.432;2023-08-06T05:36:05;5.70;;;3.07;;
74074;SDS011;62428;51.412;5.432;2023-08-06T05:38:30;4.82;;;2.35;;
74074;SDS011;62428;51.412;5.432;2023-08-06T05:40:56;5.03;;;2.70;;
74074;SDS011;62428;51.412;5.432;2023-08-06T05:43:21;7.43;;;2.93;;
74074;SDS011;62428;51.412;5.432;2023-08-06T05:45:49;5.53;;;3.70;;
74074;SDS011;62428;51.412;5.432;2023-08-06T05:48:15;5.10;;;3.10;;
74074;SDS011;62428;51.412;5.432;2023-08-06T05:50:40;7.20;;;3.40;;
74074;SDS011;62428;51.412;5.432;2023-08-06T05:53:05;4.93;;;2.83;;
74074;SDS011;62428;51.412;5.432;2023-08-06T05:55:31;8.37;;;3.50;;
74074;SDS011;62428;51.412;5.432;2023-08-06T05:57:57;6.00;;;3.40;;
74074;SDS011;62428;51.412;5.432;2023-08-06T06:00:23;8.10;;;4.10;;
74074;SDS011;62428;51.412;5.432;2023-08-06T06:02:48;7.80;;;3.47;;
74074;SDS011;62428;51.412;5.432;2023-08-06T06:05:14;8.07;;;3.40;;
74074;SDS011;62428;51.412;5.432;2023-08-06T06:07:39;9.07;;;3.40;;
74074;SDS011;62428;51.412;5.432;2023-08-06T06:10:05;7.33;;;3.77;;
74074;SDS011;62428;51.412;5.432;2023-08-06T06:12:31;5.78;;;3.50;;
74074;SDS011;62428;51.412;5.432;2023-08-06T06:14:56;7.87;;;3.57;;
74074;SDS011;62428;51.412;5.432;2023-08-06T06:17:21;7.47;;;3.43;;
74074;SDS011;62428;51.412;5.432;2023-08-06T06:19:47;5.73;;;3.53;;
74074;SDS011;62428;51.412;5.432;2023-08-06T06:22:13;6.90;;;3.72;;
74074;SDS011;62428;51.412;5.432;2023-08-06T06:24:39;5.57;;;3.05;;
74074;SDS011;62428;51.412;5.432;2023-08-06T06:27:04;7.60;;;3.23;;
74074;SDS011;62428;51.412;5.432;2023-08-06T06:29:30;9.73;;;3.13;;
74074;SDS011;62428;51.412;5.432;2023-08-06T06:31:55;6.28;;;3.55;;
74074;SDS011;62428;51.412;5.432;2023-08-06T06:34:20;5.30;;;3.30;;
74074;SDS011;62428;51.412;5.432;2023-08-06T06:36:47;4.10;;;2.73;;
74074;SDS011;62428;51.412;5.432;2023-08-06T06:39:12;4.82;;;2.70;;
74074;SDS011;62428;51.412;5.432;2023-08-06T06:41:37;12.67;;;3.17;;
74074;SDS011;62428;51.412;5.432;2023-08-06T06:44:03;6.53;;;2.50;;
74074;SDS011;62428;51.412;5.432;2023-08-06T06:46:28;6.80;;;2.30;;
74074;SDS011;62428;51.412;5.432;2023-08-06T06:48:54;11.17;;;2.43;;
74074;SDS011;62428;51.412;5.432;2023-08-06T06:51:19;4.43;;;0.60;;
74074;SDS011;62428;51.412;5.432;2023-08-06T06:53:44;2.47;;;0.60;;
74074;SDS011;62428;51.412;5.432;2023-08-06T06:56:10;2.27;;;0.50;;
74074;SDS011;62428;51.412;5.432;2023-08-06T06:58:35;1.30;;;0.67;;
74074;SDS011;62428;51.412;5.432;2023-08-06T07:01:01;2.70;;;0.60;;
74074;SDS011;62428;51.412;5.432;2023-08-06T07:03:26;2.87;;;1.00;;
74074;SDS011;62428;51.412;5.432;2023-08-06T07:05:51;1.77;;;0.90;;
74074;SDS011;62428;51.412;5.432;2023-08-06T07:08:21;2.60;;;1.08;;
74074;SDS011;62428;51.412;5.432;2023-08-06T07:10:47;10.88;;;1.33;;
74074;SDS011;62428;51.412;5.432;2023-08-06T07:13:12;5.27;;;1.00;;
74074;SDS011;62428;51.412;5.432;2023-08-06T07:15:37;3.20;;;1.10;;
74074;SDS011;62428;51.412;5.432;2023-08-06T07:18:03;3.27;;;0.90;;
74074;SDS011;62428;51.412;5.432;2023-08-06T07:20:28;2.10;;;0.93;;
74074;SDS011;62428;51.412;5.432;2023-08-06T07:22:56;2.33;;;1.10;;
74074;SDS011;62428;51.412;5.432;2023-08-06T07:25:22;2.58;;;0.90;;
74074;SDS011;62428;51.412;5.432;2023-08-06T07:27:47;1.93;;;1.10;;
74074;SDS011;62428;51.412;5.432;2023-08-06T07:30:13;1.90;;;1.10;;
74074;SDS011;62428;51.412;5.432;2023-08-06T07:32:38;2.70;;;0.90;;
74074;SDS011;62428;51.412;5.432;2023-08-06T07:35:04;1.90;;;1.20;;
74074;SDS011;62428;51.412;5.432;2023-08-06T07:37:29;3.22;;;1.20;;
74074;SDS011;62428;51.412;5.432;2023-08-06T07:39:55;4.73;;;1.37;;
74074;SDS011;62428;51.412;5.432;2023-08-06T07:42:21;2.30;;;1.42;;
74074;SDS011;62428;51.412;5.432;2023-08-06T07:44:53;4.10;;;1.97;;
74074;SDS011;62428;51.412;5.432;2023-08-06T07:47:20;4.20;;;1.75;;
74074;SDS011;62428;51.412;5.432;2023-08-06T07:49:46;5.03;;;1.97;;
74074;SDS011;62428;51.412;5.432;2023-08-06T07:52:11;4.53;;;2.17;;
74074;SDS011;62428;51.412;5.432;2023-08-06T07:54:36;5.28;;;2.10;;
74074;SDS011;62428;51.412;5.432;2023-08-06T07:57:02;4.47;;;1.90;;
74074;SDS011;62428;51.412;5.432;2023-08-06T07:59:27;4.17;;;2.40;;
74074;SDS011;62428;51.412;5.432;2023-08-06T08:01:53;6.53;;;2.37;;
74074;SDS011;62428;51.412;5.432;2023-08-06T08:04:18;3.03;;;1.70;;
74074;SDS011;62428;51.412;5.432;2023-08-06T08:06:43;4.75;;;2.08;;
74074;SDS011;62428;51.412;5.432;2023-08-06T08:09:09;3.80;;;2.30;;
74074;SDS011;62428;51.412;5.432;2023-08-06T08:11:34;3.93;;;1.97;;
74074;SDS011;62428;51.412;5.432;2023-08-06T08:13:59;6.50;;;2.30;;
74074;SDS011;62428;51.412;5.432;2023-08-06T08:16:25;5.77;;;2.27;;
74074;SDS011;62428;51.412;5.432;2023-08-06T08:18:50;4.60;;;1.73;;
74074;SDS011;62428;51.412;5.432;2023-08-06T08:21:15;4.60;;;2.00;;
74074;SDS011;62428;51.412;5.432;2023-08-06T08:23:41;4.28;;;1.52;;
74074;SDS011;62428;51.412;5.432;2023-08-06T08:26:07;4.70;;;1.33;;
74074;SDS011;62428;51.412;5.432;2023-08-06T08:28:33;6.28;;;1.55;;
74074;SDS011;62428;51.412;5.432;2023-08-06T08:30:58;5.25;;;1.30;;
74074;SDS011;62428;51.412;5.432;2023-08-06T08:33:23;6.23;;;1.30;;
74074;SDS011;62428;51.412;5.432;2023-08-06T08:35:49;5.20;;;1.70;;
74074;SDS011;62428;51.412;5.432;2023-08-06T08:38:14;7.03;;;1.60;;
74074;SDS011;62428;51.412;5.432;2023-08-06T08:40:41;3.40;;;1.33;;
74074;SDS011;62428;51.412;5.432;2023-08-06T08:43:12;7.57;;;1.60;;
74074;SDS011;62428;51.412;5.432;2023-08-06T08:45:39;5.68;;;1.75;;
74074;SDS011;62428;51.412;5.432;2023-08-06T08:48:05;4.95;;;1.40;;
74074;SDS011;62428;51.412;5.432;2023-08-06T08:50:31;4.55;;;1.70;;
74074;SDS011;62428;51.412;5.432;2023-08-06T08:52:57;8.27;;;1.85;;
74074;SDS011;62428;51.412;5.432;2023-08-06T08:55:22;4.37;;;1.90;;
74074;SDS011;62428;51.412;5.432;2023-08-06T08:57:48;7.32;;;1.90;;
74074;SDS011;62428;51.412;5.432;2023-08-06T09:00:14;6.77;;;1.90;;
74074;SDS011;62428;51.412;5.432;2023-08-06T09:02:39;4.77;;;2.00;;
74074;SDS011;62428;51.412;5.432;2023-08-06T09:05:06;9.65;;;1.83;;
74074;SDS011;62428;51.412;5.432;2023-08-06T09:07:41;10.48;;;2.15;;
74074;SDS011;62428;51.412;5.432;2023-08-06T09:10:11;6.13;;;2.08;;
74074;SDS011;62428;51.412;5.432;2023-08-06T09:12:38;6.90;;;2.10;;
74074;SDS011;62428;51.412;5.432;2023-08-06T09:15:04;10.80;;;2.42;;
74074;SDS011;62428;51.412;5.432;2023-08-06T09:17:30;7.77;;;1.73;;
74074;SDS011;62428;51.412;5.432;2023-08-06T09:19:55;10.65;;;1.85;;
74074;SDS011;62428;51.412;5.432;2023-08-06T09:22:21;5.37;;;1.50;;
74074;SDS011;62428;51.412;5.432;2023-08-06T09:24:46;8.60;;;1.93;;
74074;SDS011;62428;51.412;5.432;2023-08-06T09:27:12;6.83;;;1.60;;
74074;SDS011;62428;51.412;5.432;2023-08-06T09:29:42;4.85;;;1.20;;
74074;SDS011;62428;51.412;5.432;2023-08-06T09:32:08;4.43;;;1.60;;
74074;SDS011;62428;51.412;5.432;2023-08-06T09:34:33;4.30;;;1.20;;
74074;SDS011;62428;51.412;5.432;2023-08-06T09:36:59;8.67;;;2.10;;
74074;SDS011;62428;51.412;5.432;2023-08-06T09:39:28;5.83;;;1.60;;
74074;SDS011;62428;51.412;5.432;2023-08-06T09:41:55;7.00;;;2.15;;
74074;SDS011;62428;51.412;5.432;2023-08-06T09:44:22;5.05;;;1.20;;
74074;SDS011;62428;51.412;5.432;2023-08-06T09:46:50;5.38;;;1.73;;
74074;SDS011;62428;51.412;5.432;2023-08-06T09:49:17;3.58;;;1.13;;
74074;SDS011;62428;51.412;5.432;2023-08-06T09:51:44;4.25;;;1.48;;
74074;SDS011;62428;51.412;5.432;2023-08-06T09:54:14;8.68;;;2.28;;
74074;SDS011;62428;51.412;5.432;2023-08-06T09:56:40;6.57;;;1.60;;
74074;SDS011;62428;51.412;5.432;2023-08-06T09:59:07;10.90;;;1.90;;
74074;SDS011;62428;51.412;5.432;2023-08-06T10:01:36;6.83;;;1.80;;
74074;SDS011;62428;51.412;5.432;2023-08-06T10:04:02;5.60;;;1.30;;
74074;SDS011;62428;51.412;5.432;2023-08-06T10:06:29;6.28;;;1.85;;
74074;SDS011;62428;51.412;5.432;2023-08-06T10:08:55;9.23;;;2.20;;
74074;SDS011;62428;51.412;5.432;2023-08-06T10:11:23;8.20;;;1.90;;
74074;SDS011;62428;51.412;5.432;2023-08-06T10:13:51;6.90;;;1.75;;
74074;SDS011;62428;51.412;5.432;2023-08-06T10:16:20;5.18;;;1.48;;
74074;SDS011;62428;51.412;5.432;2023-08-06T10:18:47;7.63;;;1.73;;
74074;SDS011;62428;51.412;5.432;2023-08-06T10:21:13;7.35;;;1.98;;
74074;SDS011;62428;51.412;5.432;2023-08-06T10:23:40;5.93;;;1.53;;
74074;SDS011;62428;51.412;5.432;2023-08-06T10:26:05;8.13;;;1.90;;
74074;SDS011;62428;51.412;5.432;2023-08-06T10:28:34;8.40;;;2.00;;
74074;SDS011;62428;51.412;5.432;2023-08-06T10:31:01;16.67;;;2.42;;
74074;SDS011;62428;51.412;5.432;2023-08-06T10:33:39;7.50;;;1.87;;
74074;SDS011;62428;51.412;5.432;2023-08-06T10:36:09;9.45;;;1.20;;
74074;SDS011;62428;51.412;5.432;2023-08-06T10:38:35;8.00;;;1.23;;
74074;SDS011;62428;51.412;5.432;2023-08-06T10:41:08;4.78;;;1.40;;
74074;SDS011;62428;51.412;5.432;2023-08-06T10:44:06;6.20;;;1.07;;
74074;SDS011;62428;51.412;5.432;2023-08-06T10:46:35;9.45;;;1.30;;
74074;SDS011;62428;51.412;5.432;2023-08-06T10:49:02;5.03;;;1.42;;
74074;SDS011;62428;51.412;5.432;2023-08-06T10:51:28;6.38;;;2.00;;
74074;SDS011;62428;51.412;5.432;2023-08-06T10:53:54;9.20;;;2.10;;
74074;SDS011;62428;51.412;5.432;2023-08-06T10:56:23;8.13;;;1.80;;
74074;SDS011;62428;51.412;5.432;2023-08-06T10:58:53;8.48;;;2.10;;
74074;SDS011;62428;51.412;5.432;2023-08-06T11:01:20;12.60;;;2.30;;
74074;SDS011;62428;51.412;5.432;2023-08-06T11:03:47;9.90;;;2.38;;
74074;SDS011;62428;51.412;5.432;2023-08-06T11:06:17;7.50;;;2.10;;
74074;SDS011;62428;51.412;5.432;2023-08-06T11:08:52;10.27;;;2.15;;
74074;SDS011;62428;51.412;5.432;2023-08-06T11:11:20;8.35;;;1.90;;
74074;SDS011;62428;51.412;5.432;2023-08-06T11:13:46;9.65;;;1.75;;
74074;SDS011;62428;51.412;5.432;2023-08-06T11:16:13;9.60;;;2.10;;
74074;SDS011;62428;51.412;5.432;2023-08-06T11:18:40;6.63;;;1.25;;
74074;SDS011;62428;51.412;5.432;2023-08-06T11:21:09;10.52;;;1.58;;
74074;SDS011;62428;51.412;5.432;2023-08-06T11:23:36;8.55;;;1.73;;
74074;SDS011;62428;51.412;5.432;2023-08-06T11:26:02;7.93;;;1.60;;
74074;SDS011;62428;51.412;5.432;2023-08-06T11:28:28;8.00;;;1.30;;
74074;SDS011;62428;51.412;5.432;2023-08-06T11:30:53;7.35;;;1.48;;
74074;SDS011;62428;51.412;5.432;2023-08-06T11:33:25;6.70;;;1.50;;
74074;SDS011;62428;51.412;5.432;2023-08-06T11:35:54;8.23;;;1.50;;
74074;SDS011;62428;51.412;5.432;2023-08-06T11:38:21;8.57;;;1.45;;
74074;SDS011;62428;51.412;5.432;2023-08-06T11:40:49;6.93;;;1.70;;
74074;SDS011;62428;51.412;5.432;2023-08-06T11:43:17;13.88;;;1.90;;
74074;SDS011;62428;51.412;5.432;2023-08-06T11:45:44;8.02;;;1.73;;
74074;SDS011;62428;51.412;5.432;2023-08-06T11:48:09;6.90;;;1.43;;
74074;SDS011;62428;51.412;5.432;2023-08-06T11:50:37;6.20;;;1.13;;
74074;SDS011;62428;51.412;5.432;2023-08-06T11:53:06;7.43;;;1.42;;
74074;SDS011;62428;51.412;5.432;2023-08-06T11:55:32;5.87;;;1.40;;
74074;SDS011;62428;51.412;5.432;2023-08-06T11:57:59;7.63;;;1.75;;
74074;SDS011;62428;51.412;5.432;2023-08-06T12:00:29;5.25;;;1.30;;
74074;SDS011;62428;51.412;5.432;2023-08-06T12:02:54;3.93;;;1.30;;
74074;SDS011;62428;51.412;5.432;2023-08-06T12:05:22;4.55;;;1.27;;
74074;SDS011;62428;51.412;5.432;2023-08-06T12:07:52;14.82;;;1.60;;
74074;SDS011;62428;51.412;5.432;2023-08-06T12:10:20;5.22;;;1.63;;
74074;SDS011;62428;51.412;5.432;2023-08-06T12:12:46;8.48;;;1.52;;
74074;SDS011;62428;51.412;5.432;2023-08-06T12:15:12;8.75;;;1.33;;
74074;SDS011;62428;51.412;5.432;2023-08-06T12:17:38;5.70;;;1.20;;
74074;SDS011;62428;51.412;5.432;2023-08-06T12:20:04;3.17;;;0.88;;
74074;SDS011;62428;51.412;5.432;2023-08-06T12:22:31;5.03;;;1.10;;
74074;SDS011;62428;51.412;5.432;2023-08-06T12:25:00;8.50;;;0.80;;
74074;SDS011;62428;51.412;5.432;2023-08-06T12:27:28;5.80;;;0.80;;
74074;SDS011;62428;51.412;5.432;2023-08-06T12:29:54;3.85;;;0.90;;
74074;SDS011;62428;51.412;5.432;2023-08-06T12:32:20;8.13;;;1.10;;
74074;SDS011;62428;51.412;5.432;2023-08-06T12:34:45;6.60;;;0.90;;
74074;SDS011;62428;51.412;5.432;2023-08-06T12:37:10;2.67;;;0.70;;
74074;SDS011;62428;51.412;5.432;2023-08-06T12:39:36;5.37;;;1.00;;
74074;SDS011;62428;51.412;5.432;2023-08-06T12:42:04;6.03;;;0.70;;
74074;SDS011;62428;51.412;5.432;2023-08-06T12:44:30;7.72;;;1.10;;
74074;SDS011;62428;51.412;5.432;2023-08-06T12:46:56;6.50;;;0.88;;
74074;SDS011;62428;51.412;5.432;2023-08-06T12:49:22;7.43;;;0.80;;
74074;SDS011;62428;51.412;5.432;2023-08-06T12:51:48;6.50;;;0.90;;
74074;SDS011;62428;51.412;5.432;2023-08-06T12:54:14;6.03;;;1.02;;
74074;SDS011;62428;51.412;5.432;2023-08-06T12:56:41;4.30;;;0.87;;
74074;SDS011;62428;51.412;5.432;2023-08-06T12:59:06;5.07;;;0.80;;
74074;SDS011;62428;51.412;5.432;2023-08-06T13:01:31;4.20;;;0.73;;
74074;SDS011;62428;51.412;5.432;2023-08-06T13:03:57;8.03;;;0.80;;
74074;SDS011;62428;51.412;5.432;2023-08-06T13:06:24;6.03;;;0.80;;
74074;SDS011;62428;51.412;5.432;2023-08-06T13:08:49;7.20;;;0.67;;
74074;SDS011;62428;51.412;5.432;2023-08-06T13:11:15;8.30;;;0.77;;
74074;SDS011;62428;51.412;5.432;2023-08-06T13:13:40;6.87;;;1.10;;
74074;SDS011;62428;51.412;5.432;2023-08-06T13:16:06;6.63;;;0.77;;
74074;SDS011;62428;51.412;5.432;2023-08-06T13:18:31;4.90;;;0.55;;
74074;SDS011;62428;51.412;5.432;2023-08-06T13:20:56;6.37;;;0.67;;
74074;SDS011;62428;51.412;5.432;2023-08-06T13:23:22;6.47;;;0.87;;
74074;SDS011;62428;51.412;5.432;2023-08-06T13:25:47;3.03;;;0.80;;
74074;SDS011;62428;51.412;5.432;2023-08-06T13:28:12;6.33;;;0.90;;
74074;SDS011;62428;51.412;5.432;2023-08-06T13:30:41;10.07;;;0.77;;
74074;SDS011;62428;51.412;5.432;2023-08-06T13:33:09;9.63;;;0.93;;
74074;SDS011;62428;51.412;5.432;2023-08-06T13:35:35;6.28;;;1.00;;
74074;SDS011;62428;51.412;5.432;2023-08-06T13:38:01;8.30;;;0.67;;
74074;SDS011;62428;51.412;5.432;2023-08-06T13:40:29;7.32;;;0.70;;
74074;SDS011;62428;51.412;5.432;2023-08-06T13:42:57;5.50;;;0.60;;
74074;SDS011;62428;51.412;5.432;2023-08-06T13:45:23;4.50;;;1.13;;
74074;SDS011;62428;51.412;5.432;2023-08-06T13:47:49;4.03;;;0.90;;
74074;SDS011;62428;51.412;5.432;2023-08-06T13:50:14;5.37;;;0.57;;
74074;SDS011;62428;51.412;5.432;2023-08-06T13:52:39;4.73;;;0.50;;
74074;SDS011;62428;51.412;5.432;2023-08-06T13:55:05;5.97;;;1.20;;
74074;SDS011;62428;51.412;5.432;2023-08-06T13:57:31;5.82;;;0.70;;
74074;SDS011;62428;51.412;5.432;2023-08-06T13:59:57;5.70;;;0.60;;
74074;SDS011;62428;51.412;5.432;2023-08-06T14:02:22;5.23;;;0.83;;
74074;SDS011;62428;51.412;5.432;2023-08-06T14:04:48;6.73;;;0.87;;
74074;SDS011;62428;51.412;5.432;2023-08-06T14:07:13;5.73;;;0.73;;
74074;SDS011;62428;51.412;5.432;2023-08-06T14:09:38;4.93;;;0.53;;
74074;SDS011;62428;51.412;5.432;2023-08-06T14:12:05;3.30;;;0.93;;
74074;SDS011;62428;51.412;5.432;2023-08-06T14:14:31;4.38;;;0.63;;
74074;SDS011;62428;51.412;5.432;2023-08-06T14:16:56;7.63;;;0.80;;
74074;SDS011;62428;51.412;5.432;2023-08-06T14:19:22;5.43;;;0.70;;
74074;SDS011;62428;51.412;5.432;2023-08-06T14:21:47;4.20;;;0.90;;
74074;SDS011;62428;51.412;5.432;2023-08-06T14:24:12;4.75;;;0.68;;
74074;SDS011;62428;51.412;5.432;2023-08-06T14:26:38;4.07;;;1.00;;
74074;SDS011;62428;51.412;5.432;2023-08-06T14:29:03;8.67;;;1.00;;
74074;SDS011;62428;51.412;5.432;2023-08-06T14:31:29;7.10;;;0.80;;
74074;SDS011;62428;51.412;5.432;2023-08-06T14:33:54;6.50;;;0.70;;
74074;SDS011;62428;51.412;5.432;2023-08-06T14:36:20;2.97;;;0.73;;
74074;SDS011;62428;51.412;5.432;2023-08-06T14:38:45;7.57;;;0.80;;
74074;SDS011;62428;51.412;5.432;2023-08-06T14:41:10;4.30;;;0.67;;
74074;SDS011;62428;51.412;5.432;2023-08-06T14:43:36;4.50;;;0.90;;
74074;SDS011;62428;51.412;5.432;2023-08-06T14:46:01;3.58;;;0.90;;
74074;SDS011;62428;51.412;5.432;2023-08-06T14:48:28;3.42;;;0.80;;